createdAt,value
2023-01-19T00:00:12.151Z,-0.11
2023-01-19T00:03:15.952Z,-0.10
2023-01-19T00:05:52.753Z,-0.09
2023-01-19T00:08:26.067Z,-0.08
2023-01-19T00:11:18.825Z,-0.06
2023-01-19T00:13:51.969Z,-0.05
2023-01-19T00:16:30.150Z,-0.04
2023-01-19T00:19:13.646Z,-0.03
2023-01-19T00:21:51.605Z,-0.01
2023-01-19T00:24:23.878Z,0.02
2023-01-19T00:26:56.254Z,0.04
2023-01-19T00:29:33.603Z,0.05
2023-01-19T00:32:07.128Z,0.07
2023-01-19T00:34:42.749Z,0.10
2023-01-19T00:37:16.079Z,0.12
2023-01-19T00:39:49.134Z,0.14
2023-01-19T00:42:41.821Z,0.17
2023-01-19T00:45:16.675Z,0.18
2023-01-19T00:47:58.066Z,0.18
2023-01-19T00:50:38.153Z,0.15
2023-01-19T00:53:10.803Z,0.15
2023-01-19T00:55:43.229Z,0.12
2023-01-19T00:58:15.362Z,0.10
2023-01-19T01:00:47.477Z,0.08
2023-01-19T01:03:28.167Z,0.05
2023-01-19T01:06:09.999Z,0.05
2023-01-19T01:08:44.184Z,0.04
2023-01-19T01:11:17.684Z,0.02
2023-01-19T01:13:50.872Z,-0.07
2023-01-19T01:16:25.893Z,-0.15
2023-01-19T01:19:00.750Z,-0.20
2023-01-19T01:21:34.689Z,-0.30
2023-01-19T01:24:08.039Z,-0.40
2023-01-19T01:26:48.210Z,-0.43
2023-01-19T01:29:24.038Z,-0.43
2023-01-19T01:32:01.404Z,-0.50
2023-01-19T01:34:33.946Z,-0.60
2023-01-19T01:37:09.983Z,-0.62
2023-01-19T01:39:45.466Z,-0.62
2023-01-19T01:42:31.525Z,-0.60
2023-01-19T01:45:29.836Z,-0.55
2023-01-19T01:48:07.559Z,-0.54
2023-01-19T01:51:03.970Z,-0.54
2023-01-19T01:53:38.602Z,-0.53
2023-01-19T01:56:16.479Z,-0.53
2023-01-19T01:58:51.905Z,-0.51
2023-01-19T02:01:41.977Z,-0.50
2023-01-19T02:04:17.586Z,-0.51
2023-01-19T02:07:07.734Z,-0.52
2023-01-19T02:09:59.119Z,-0.51
2023-01-19T02:12:50.641Z,-0.53
2023-01-19T02:15:28.045Z,-0.53
2023-01-19T02:18:00.419Z,-0.52
2023-01-19T02:21:00.836Z,-0.50
2023-01-19T02:23:44.106Z,-0.47
2023-01-19T02:26:23.450Z,-0.46
2023-01-19T02:28:59.355Z,-0.46
2023-01-19T02:31:33.955Z,-0.48
2023-01-19T02:34:08.243Z,-0.51
2023-01-19T02:36:52.141Z,-0.52
2023-01-19T02:39:30.401Z,-0.53
2023-01-19T02:42:09.102Z,-0.55
2023-01-19T02:44:53.518Z,-0.58
2023-01-19T02:47:28.848Z,-0.60
2023-01-19T02:50:01.831Z,-0.61
2023-01-19T02:52:34.207Z,-0.63
2023-01-19T02:55:19.444Z,-0.62
2023-01-19T02:58:00.904Z,-0.62
2023-01-19T03:00:48.076Z,-0.65
2023-01-19T03:03:32.039Z,-0.67
2023-01-19T03:06:11.614Z,-0.81
2023-01-19T03:08:53.255Z,-0.94
2023-01-19T03:11:30.428Z,-1.06
2023-01-19T03:14:13.509Z,-1.16
2023-01-19T03:16:49.139Z,-1.24
2023-01-19T03:19:28.372Z,-1.29
2023-01-19T03:22:06.864Z,-1.31
2023-01-19T03:24:43.393Z,-1.31
2023-01-19T03:27:26.392Z,-1.32
2023-01-19T03:30:02.941Z,-1.31
2023-01-19T03:32:41.074Z,-1.24
2023-01-19T03:35:17.661Z,-1.19
2023-01-19T03:37:53.081Z,-1.19
2023-01-19T03:40:28.996Z,-1.19
2023-01-19T03:43:05.578Z,-1.16
2023-01-19T03:45:41.926Z,-1.11
2023-01-19T03:48:17.781Z,-1.04
2023-01-19T03:50:50.519Z,-1.01
2023-01-19T03:53:23.691Z,-0.97
2023-01-19T03:55:55.906Z,-0.90
2023-01-19T03:58:28.332Z,-0.84
2023-01-19T04:01:00.942Z,-0.78
2023-01-19T04:03:33.657Z,-0.73
2023-01-19T04:06:07.732Z,-0.66
2023-01-19T04:08:40.794Z,-0.61
2023-01-19T04:11:15.355Z,-0.58
2023-01-19T04:13:47.850Z,-0.55
2023-01-19T04:16:21.345Z,-0.52
2023-01-19T04:18:54.722Z,-0.48
2023-01-19T04:21:25.392Z,-0.44
2023-01-19T04:23:57.838Z,-0.42
2023-01-19T04:26:30.250Z,-0.38
2023-01-19T04:29:05.693Z,-0.34
2023-01-19T04:31:40.536Z,-0.30
2023-01-19T04:34:13.039Z,-0.26
2023-01-19T04:36:48.095Z,-0.23
2023-01-19T04:39:40.678Z,-0.20
2023-01-19T04:42:13.133Z,-0.16
2023-01-19T04:45:05.959Z,-0.17
2023-01-19T04:47:53.015Z,-0.19
2023-01-19T04:50:25.452Z,-0.22
2023-01-19T04:52:58.463Z,-0.27
2023-01-19T04:55:33.923Z,-0.27
2023-01-19T04:58:11.873Z,-0.27
2023-01-19T05:00:55.525Z,-0.24
2023-01-19T05:03:31.304Z,-0.18
2023-01-19T05:06:20.520Z,-0.13
2023-01-19T05:09:02.031Z,-0.07
2023-01-19T05:11:32.495Z,-0.03
2023-01-19T05:14:13.822Z,-0.01
2023-01-19T05:16:48.782Z,0.01
2023-01-19T05:19:23.846Z,0.03
2023-01-19T05:22:18.320Z,0.04
2023-01-19T05:24:50.582Z,0.06
2023-01-19T05:27:22.829Z,0.10
2023-01-19T05:29:55.160Z,0.16
2023-01-19T05:32:27.780Z,0.22
2023-01-19T05:35:00.219Z,0.28
2023-01-19T05:37:32.767Z,0.32
2023-01-19T05:40:05.627Z,0.34
2023-01-19T05:42:41.037Z,0.35
2023-01-19T05:45:16.578Z,0.36
2023-01-19T05:47:49.088Z,0.35
2023-01-19T05:50:21.395Z,0.37
2023-01-19T05:52:54.201Z,0.39
2023-01-19T05:55:28.854Z,0.41
2023-01-19T05:58:01.487Z,0.46
2023-01-19T06:00:36.164Z,0.50
2023-01-19T06:03:06.967Z,0.51
2023-01-19T06:05:40.363Z,0.48
2023-01-19T06:08:12.774Z,0.46
2023-01-19T06:10:44.748Z,0.46
2023-01-19T06:13:17.487Z,0.44
2023-01-19T06:15:49.772Z,0.39
2023-01-19T06:18:21.419Z,0.37
2023-01-19T06:20:58.662Z,0.33
2023-01-19T06:23:33.197Z,0.33
2023-01-19T06:26:06.375Z,0.34
2023-01-19T06:28:38.725Z,0.38
2023-01-19T06:31:11.210Z,0.39
2023-01-19T06:33:45.907Z,0.40
2023-01-19T06:36:18.312Z,0.39
2023-01-19T06:38:50.621Z,0.38
2023-01-19T06:41:23.127Z,0.39
2023-01-19T06:43:58.438Z,0.39
2023-01-19T06:46:30.890Z,0.39
2023-01-19T06:49:23.679Z,0.38
2023-01-19T06:51:59.306Z,0.38
2023-01-19T06:54:43.456Z,0.36
2023-01-19T06:57:20.929Z,0.36
2023-01-19T06:59:53.490Z,0.38
2023-01-19T07:02:28.545Z,0.39
2023-01-19T07:05:01.417Z,0.41
2023-01-19T07:07:33.768Z,0.43
2023-01-19T07:10:08.178Z,0.46
2023-01-19T07:12:40.855Z,0.45
2023-01-19T07:15:14.084Z,0.43
2023-01-19T07:17:46.797Z,0.43
2023-01-19T07:20:19.710Z,0.44
2023-01-19T07:22:59.024Z,0.43
2023-01-19T07:25:31.797Z,0.45
2023-01-19T07:28:09.385Z,0.49
2023-01-19T07:30:42.571Z,0.51
2023-01-19T07:33:17.846Z,0.53
2023-01-19T07:35:51.533Z,0.56
2023-01-19T07:38:24.081Z,0.59
2023-01-19T07:41:03.025Z,0.62
2023-01-19T07:43:38.179Z,0.66
2023-01-19T07:46:10.907Z,0.71
2023-01-19T07:48:47.548Z,0.75
2023-01-19T07:51:39.923Z,0.78
2023-01-19T07:54:14.792Z,0.79
2023-01-19T07:56:47.173Z,0.79
2023-01-19T07:59:19.757Z,0.80
2023-01-19T08:01:53.520Z,0.83
2023-01-19T08:04:26.255Z,0.84
2023-01-19T08:06:58.764Z,0.86
2023-01-19T08:09:30.914Z,0.85
2023-01-19T08:12:06.751Z,0.86
2023-01-19T08:14:39.370Z,0.87
2023-01-19T08:17:14.762Z,0.89
2023-01-19T08:19:47.088Z,0.92
2023-01-19T08:22:19.251Z,0.95
2023-01-19T08:24:51.850Z,0.95
2023-01-19T08:27:24.584Z,0.96
2023-01-19T08:29:59.583Z,0.99
2023-01-19T08:32:30.226Z,1.03
2023-01-19T08:35:02.562Z,1.05
2023-01-19T08:37:35.070Z,1.07
2023-01-19T08:40:10.183Z,1.06
2023-01-19T08:42:42.756Z,1.02
2023-01-19T08:45:15.350Z,1.00
2023-01-19T08:47:47.963Z,1.03
2023-01-19T08:50:20.935Z,1.07
2023-01-19T08:52:53.468Z,1.06
2023-01-19T08:55:26.076Z,1.09
2023-01-19T08:58:00.107Z,1.14
2023-01-19T09:00:34.505Z,1.18
2023-01-19T09:03:12.383Z,1.23
2023-01-19T09:06:08.960Z,1.31
2023-01-19T09:08:41.367Z,1.33
2023-01-19T09:11:12.810Z,1.36
2023-01-19T09:13:45.650Z,1.33
2023-01-19T09:16:18.447Z,1.30
2023-01-19T09:18:51.006Z,1.31
2023-01-19T09:21:21.568Z,1.35
2023-01-19T09:23:54.760Z,1.40
2023-01-19T09:26:27.265Z,1.45
2023-01-19T09:29:08.778Z,1.50
2023-01-19T09:31:41.751Z,1.53
2023-01-19T09:34:14.028Z,1.58
2023-01-19T09:36:47.401Z,1.61
2023-01-19T09:39:20.138Z,1.64
2023-01-19T09:42:07.095Z,1.65
2023-01-19T09:44:40.541Z,1.62
2023-01-19T09:47:21.356Z,1.60
2023-01-19T09:50:00.220Z,1.58
2023-01-19T09:52:36.004Z,1.53
2023-01-19T09:55:18.950Z,1.48
2023-01-19T09:57:51.310Z,1.47
2023-01-19T10:00:27.662Z,1.46
2023-01-19T10:03:08.987Z,1.47
2023-01-19T10:05:45.828Z,1.49
2023-01-19T10:08:30.891Z,1.53
2023-01-19T10:11:03.475Z,1.53
2023-01-19T10:13:45.172Z,1.57
2023-01-19T10:16:32.120Z,1.58
2023-01-19T10:19:24.999Z,1.60
2023-01-19T10:21:59.923Z,1.64
2023-01-19T10:24:39.753Z,1.69
2023-01-19T10:27:25.507Z,1.71
2023-01-19T10:29:58.488Z,1.71
2023-01-19T10:32:34.103Z,1.69
2023-01-19T10:35:22.488Z,1.67
2023-01-19T10:37:58.093Z,1.66
2023-01-19T10:40:40.290Z,1.66
2023-01-19T10:43:38.071Z,1.67
2023-01-19T10:46:20.689Z,1.67
2023-01-19T10:48:55.329Z,1.67
2023-01-19T10:51:27.781Z,1.68
2023-01-19T10:54:03.356Z,1.69
2023-01-19T10:56:39.496Z,1.68
2023-01-19T10:59:33.969Z,1.66
2023-01-19T11:02:22.536Z,1.67
2023-01-19T11:04:57.273Z,1.68
2023-01-19T11:07:33.179Z,1.67
2023-01-19T11:10:25.923Z,1.70
2023-01-19T11:13:12.869Z,1.71
2023-01-19T11:15:50.091Z,1.73
2023-01-19T11:18:34.974Z,1.74
2023-01-19T11:21:09.410Z,1.76
2023-01-19T11:23:47.785Z,1.76
2023-01-19T11:26:28.974Z,1.72
2023-01-19T11:29:06.186Z,1.68
2023-01-19T11:32:13.444Z,1.67
2023-01-19T11:35:21.386Z,1.67
2023-01-19T11:38:08.080Z,1.67
2023-01-19T11:40:53.123Z,1.63
2023-01-19T11:43:43.369Z,1.65
2023-01-19T11:46:21.061Z,1.65
2023-01-19T11:49:01.917Z,1.63
2023-01-19T11:51:41.371Z,1.60
2023-01-19T11:54:23.877Z,1.56
2023-01-19T11:56:59.373Z,1.51
2023-01-19T11:59:31.895Z,1.46
2023-01-19T12:02:12.432Z,1.41
2023-01-19T12:04:48.164Z,1.39
2023-01-19T12:07:25.762Z,1.36
2023-01-19T12:10:15.274Z,1.34
2023-01-19T12:12:49.319Z,1.33
2023-01-19T12:15:37.433Z,1.33
2023-01-19T12:18:20.607Z,1.35
2023-01-19T12:20:55.828Z,1.35
2023-01-19T12:23:38.332Z,1.37
2023-01-19T12:26:34.466Z,1.42
2023-01-19T12:29:13.300Z,1.47
2023-01-19T12:31:45.697Z,1.52
2023-01-19T12:34:46.691Z,1.55
2023-01-19T12:37:41.687Z,1.55
2023-01-19T12:40:29.137Z,1.58
2023-01-19T12:43:04.395Z,1.61
2023-01-19T12:45:39.893Z,1.62
2023-01-19T12:48:27.640Z,1.64
2023-01-19T12:50:59.868Z,1.65
2023-01-19T12:53:37.629Z,1.66
2023-01-19T12:56:13.999Z,1.69
2023-01-19T12:58:51.115Z,1.74
2023-01-19T13:01:24.964Z,1.81
2023-01-19T13:04:07.377Z,1.83
2023-01-19T13:06:55.539Z,1.84
2023-01-19T13:09:38.163Z,1.83
2023-01-19T13:12:23.220Z,1.84
2023-01-19T13:15:29.182Z,1.83
2023-01-19T13:18:03.568Z,1.81
2023-01-19T13:20:47.752Z,1.78
2023-01-19T13:23:23.747Z,1.76
2023-01-19T13:26:04.118Z,1.74
2023-01-19T13:28:43.630Z,1.72
2023-01-19T13:31:17.143Z,1.72
2023-01-19T13:33:54.414Z,1.71
2023-01-19T13:36:31.700Z,1.70
2023-01-19T13:39:08.470Z,1.69
2023-01-19T13:41:44.994Z,1.71
2023-01-19T13:44:19.922Z,1.73
2023-01-19T13:46:53.774Z,1.76
2023-01-19T13:49:31.606Z,1.75
2023-01-19T13:52:15.455Z,1.74
2023-01-19T13:55:00.540Z,1.73
2023-01-19T13:57:35.901Z,1.73
2023-01-19T14:00:18.865Z,1.73
2023-01-19T14:03:02.739Z,1.72
2023-01-19T14:05:38.503Z,1.72
2023-01-19T14:08:18.271Z,1.73
2023-01-19T14:11:03.237Z,1.75
2023-01-19T14:13:40.272Z,1.76
2023-01-19T14:16:37.411Z,1.78
2023-01-19T14:19:09.735Z,1.77
2023-01-19T14:21:41.864Z,1.76
2023-01-19T14:24:20.324Z,1.71
2023-01-19T14:26:54.848Z,1.68
2023-01-19T14:29:29.034Z,1.65
2023-01-19T14:32:18.505Z,1.65
2023-01-19T14:35:12.484Z,1.66
2023-01-19T14:37:51.331Z,1.70
2023-01-19T14:40:26.831Z,1.74
2023-01-19T14:43:03.999Z,1.77
2023-01-19T14:45:39.373Z,1.81
2023-01-19T14:48:19.402Z,1.83
2023-01-19T14:51:03.684Z,1.87
2023-01-19T14:53:39.556Z,1.90
2023-01-19T14:56:12.056Z,1.95
2023-01-19T14:58:44.414Z,1.97
2023-01-19T15:01:15.255Z,1.98
2023-01-19T15:03:50.565Z,1.95
2023-01-19T15:06:24.553Z,1.95
2023-01-19T15:08:57.126Z,1.95
2023-01-19T15:11:32.233Z,1.95
2023-01-19T15:14:05.319Z,1.94
2023-01-19T15:16:40.296Z,1.92
2023-01-19T15:19:16.666Z,1.89
2023-01-19T15:21:48.799Z,1.85
2023-01-19T15:24:23.451Z,1.82
2023-01-19T15:27:02.772Z,1.81
2023-01-19T15:29:37.667Z,1.79
2023-01-19T15:32:15.076Z,1.78
2023-01-19T15:34:52.682Z,1.79
2023-01-19T15:37:42.501Z,1.79
2023-01-19T15:40:16.701Z,1.76
2023-01-19T15:42:53.240Z,1.75
2023-01-19T15:45:51.582Z,1.72
2023-01-19T15:48:33.460Z,1.70
2023-01-19T15:51:13.845Z,1.69
2023-01-19T15:54:11.762Z,1.66
2023-01-19T15:56:50.969Z,1.64
2023-01-19T15:59:28.865Z,1.63
2023-01-19T16:02:12.776Z,1.61
2023-01-19T16:04:59.815Z,1.60
2023-01-19T16:07:40.489Z,1.60
2023-01-19T16:13:36.665Z,1.53
2023-01-19T16:16:16.396Z,1.50
2023-01-19T16:18:50.337Z,1.51
2023-01-19T16:21:27.607Z,1.53
2023-01-19T16:24:03.142Z,1.55
2023-01-19T16:26:43.165Z,1.58
2023-01-19T16:29:15.877Z,1.60
2023-01-19T16:31:48.412Z,1.62
2023-01-19T16:34:20.902Z,1.65
2023-01-19T16:36:53.926Z,1.66
2023-01-19T16:39:26.479Z,1.68
2023-01-19T16:42:01.912Z,1.67
2023-01-19T16:44:37.406Z,1.67
2023-01-19T16:47:09.831Z,1.68
2023-01-19T16:49:42.378Z,1.68
2023-01-19T16:52:14.752Z,1.69
2023-01-19T16:54:47.522Z,1.71
2023-01-19T16:57:20.004Z,1.71
2023-01-19T16:59:52.278Z,1.69
2023-01-19T17:02:24.844Z,1.62
2023-01-19T17:05:00.342Z,1.53
2023-01-19T17:07:36.316Z,1.44
2023-01-19T17:10:11.343Z,1.35
2023-01-19T17:12:44.084Z,1.28
2023-01-19T17:15:17.127Z,1.21
2023-01-19T17:17:50.242Z,1.16
2023-01-19T17:20:22.624Z,1.16
2023-01-19T17:22:56.129Z,1.13
2023-01-19T17:25:28.733Z,1.13
2023-01-19T17:28:02.933Z,1.15
2023-01-19T17:30:36.507Z,1.18
2023-01-19T17:33:09.648Z,1.17
2023-01-19T17:35:46.754Z,1.14
2023-01-19T17:38:19.374Z,1.09
2023-01-19T17:40:54.771Z,1.07
2023-01-19T17:43:27.509Z,1.06
2023-01-19T17:46:03.844Z,1.06
2023-01-19T17:48:39.372Z,1.03
2023-01-19T17:51:15.501Z,1.01
2023-01-19T17:53:50.795Z,1.02
2023-01-19T17:56:27.763Z,1.02
2023-01-19T17:59:00.703Z,1.02
2023-01-19T18:01:34.539Z,1.00
2023-01-19T18:04:10.553Z,0.98
2023-01-19T18:06:47.233Z,0.99
2023-01-19T18:09:19.716Z,1.03
2023-01-19T18:11:52.303Z,1.05
2023-01-19T18:14:27.542Z,1.06
2023-01-19T18:17:00.585Z,1.06
2023-01-19T18:19:33.504Z,1.06
2023-01-19T18:22:08.266Z,1.05
2023-01-19T18:24:43.842Z,1.06
2023-01-19T18:27:17.646Z,1.08
2023-01-19T18:30:01.139Z,1.11
2023-01-19T18:32:35.987Z,1.14
2023-01-19T18:35:10.300Z,1.18
2023-01-19T18:37:44.855Z,1.20
2023-01-19T18:40:17.825Z,1.22
2023-01-19T18:42:50.397Z,1.24
2023-01-19T18:45:23.000Z,1.24
2023-01-19T18:47:58.547Z,1.25
2023-01-19T18:50:31.629Z,1.27
2023-01-19T18:53:04.175Z,1.31
2023-01-19T18:55:36.844Z,1.35
2023-01-19T18:58:09.275Z,1.37
2023-01-19T19:00:39.959Z,1.38
2023-01-19T19:03:12.341Z,1.36
2023-01-19T19:05:48.013Z,1.36
2023-01-19T19:08:20.612Z,1.36
2023-01-19T19:10:53.191Z,1.37
2023-01-19T19:13:25.662Z,1.38
2023-01-19T19:16:05.618Z,1.38
2023-01-19T19:18:50.143Z,1.38
2023-01-19T19:21:25.743Z,1.37
2023-01-19T19:24:01.061Z,1.35
2023-01-19T19:26:37.227Z,1.33
2023-01-19T19:29:09.510Z,1.30
2023-01-19T19:31:46.222Z,1.27
2023-01-19T19:34:18.617Z,1.22
2023-01-19T19:37:01.281Z,1.16
2023-01-19T19:39:41.090Z,1.12
2023-01-19T19:42:13.618Z,1.10
2023-01-19T19:44:46.379Z,1.09
2023-01-19T19:47:19.010Z,1.07
2023-01-19T19:49:51.610Z,1.03
2023-01-19T19:52:23.722Z,0.99
2023-01-19T19:54:56.072Z,0.95
2023-01-19T19:57:26.528Z,0.93
2023-01-19T19:59:59.279Z,0.91
2023-01-19T20:02:39.901Z,0.90
2023-01-19T20:05:17.909Z,0.88
2023-01-19T20:07:51.118Z,0.88
2023-01-19T20:10:25.115Z,0.87
2023-01-19T20:13:00.352Z,0.86
2023-01-19T20:15:39.126Z,0.84
2023-01-19T20:18:22.169Z,0.84
2023-01-19T20:21:00.516Z,0.82
2023-01-19T20:23:33.660Z,0.80
2023-01-19T20:26:09.252Z,0.81
2023-01-19T20:28:43.348Z,0.78
2023-01-19T20:31:19.782Z,0.75
2023-01-19T20:33:56.781Z,0.73
2023-01-19T20:36:41.873Z,0.72
2023-01-19T20:39:30.125Z,0.68
2023-01-19T20:42:09.907Z,0.67
2023-01-19T20:44:43.007Z,0.67
2023-01-19T20:47:15.944Z,0.65
2023-01-19T20:49:48.429Z,0.62
2023-01-19T20:52:24.079Z,0.59
2023-01-19T20:54:56.618Z,0.57
2023-01-19T20:57:29.158Z,0.56
2023-01-19T21:00:01.912Z,0.55
2023-01-19T21:02:34.559Z,0.55
2023-01-19T21:05:13.687Z,0.54
2023-01-19T21:07:51.425Z,0.53
2023-01-19T21:10:24.073Z,0.51
2023-01-19T21:12:59.560Z,0.51
2023-01-19T21:15:35.198Z,0.51
2023-01-19T21:18:16.250Z,0.50
2023-01-19T21:20:48.218Z,0.48
2023-01-19T21:23:40.449Z,0.45
2023-01-19T21:26:21.305Z,0.43
2023-01-19T21:28:53.627Z,0.45
2023-01-19T21:31:30.015Z,0.48
2023-01-19T21:34:02.799Z,0.48
2023-01-19T21:36:35.292Z,0.47
2023-01-19T21:39:08.288Z,0.47
2023-01-19T21:41:43.811Z,0.48
2023-01-19T21:44:16.446Z,0.48
2023-01-19T21:46:48.520Z,0.46
2023-01-19T21:49:21.822Z,0.44
2023-01-19T21:51:57.047Z,0.43
2023-01-19T21:54:31.973Z,0.42
2023-01-19T21:57:06.806Z,0.39
2023-01-19T21:59:37.639Z,0.34
2023-01-19T22:02:12.979Z,0.28
2023-01-19T22:04:45.472Z,0.25
2023-01-19T22:07:20.400Z,0.26
2023-01-19T22:09:55.533Z,0.30
2023-01-19T22:12:27.847Z,0.33
2023-01-19T22:15:02.971Z,0.35
2023-01-19T22:17:37.956Z,0.36
2023-01-19T22:20:13.758Z,0.35
2023-01-19T22:22:48.782Z,0.35
2023-01-19T22:25:35.165Z,0.35
2023-01-19T22:28:14.677Z,0.35
2023-01-19T22:30:49.724Z,0.33
2023-01-19T22:33:25.231Z,0.32
2023-01-19T22:35:56.722Z,0.31
2023-01-19T22:38:29.074Z,0.29
2023-01-19T22:41:11.819Z,0.25
2023-01-19T22:43:43.946Z,0.21
2023-01-19T22:46:20.193Z,0.19
2023-01-19T22:48:53.205Z,0.18
2023-01-19T22:51:26.999Z,0.17
2023-01-19T22:54:19.303Z,0.17
2023-01-19T22:56:51.684Z,0.18
2023-01-19T22:59:26.571Z,0.19
2023-01-19T23:02:12.442Z,0.19
2023-01-19T23:04:49.572Z,0.21
2023-01-19T23:07:24.830Z,0.22
2023-01-19T23:09:56.983Z,0.20
2023-01-19T23:12:29.229Z,0.22
2023-01-19T23:15:04.673Z,0.24
2023-01-19T23:17:43.824Z,0.23
2023-01-19T23:20:17.055Z,0.22
2023-01-19T23:22:59.384Z,0.22
2023-01-19T23:25:35.959Z,0.24
2023-01-19T23:28:11.350Z,0.27
2023-01-19T23:30:43.652Z,0.29
2023-01-19T23:33:15.951Z,0.30
2023-01-19T23:35:48.456Z,0.31
2023-01-19T23:38:23.335Z,0.31
2023-01-19T23:41:14.444Z,0.31
2023-01-19T23:43:49.840Z,0.30
2023-01-19T23:46:25.811Z,0.30
2023-01-19T23:48:58.333Z,0.31
2023-01-19T23:51:32.885Z,0.34
2023-01-19T23:54:08.260Z,0.36
2023-01-19T23:56:47.825Z,0.39
2023-01-19T23:59:18.456Z,0.40
